sensor_id;sensor_type;location;lat;lon;timestamp;pressure;altitude;pressure_sealevel;temperature;humidity
71057;BME280;58380;48.312;9.246;2024-03-17T08:31:58;94062.63;;;7.43;100.00
71057;BME280;58380;48.312;9.246;2024-03-17T08:34:59;94056.59;;;7.43;100.00
71057;BME280;58380;48.312;9.246;2024-03-17T08:37:59;94049.50;;;7.55;100.00
71057;BME280;58380;48.312;9.246;2024-03-17T08:41:05;94057.28;;;7.73;100.00
71057;BME280;58380;48.312;9.246;2024-03-17T08:44:07;94057.50;;;7.84;100.00
71057;BME280;58380;48.312;9.246;2024-03-17T08:47:07;94049.59;;;7.95;100.00
71057;BME280;58380;48.312;9.246;2024-03-17T08:50:08;94052.13;;;8.02;100.00
71057;BME280;58380;48.312;9.246;2024-03-17T08:53:12;94032.81;;;7.96;100.00
71057;BME280;58380;48.312;9.246;2024-03-17T08:56:13;94028.00;;;8.05;100.00
71057;BME280;58380;48.312;9.246;2024-03-17T08:59:14;94045.72;;;8.38;100.00
71057;BME280;58380;48.312;9.246;2024-03-17T09:02:14;94030.66;;;8.46;100.00
71057;BME280;58380;48.312;9.246;2024-03-17T09:05:15;94028.78;;;8.58;100.00
71057;BME280;58380;48.312;9.246;2024-03-17T09:08:23;94038.00;;;8.72;100.00
71057;BME280;58380;48.312;9.246;2024-03-17T09:11:24;94015.88;;;8.73;100.00
71057;BME280;58380;48.312;9.246;2024-03-17T09:14:27;94020.63;;;8.88;100.00
71057;BME280;58380;48.312;9.246;2024-03-17T09:17:28;94023.41;;;8.81;100.00
71057;BME280;58380;48.312;9.246;2024-03-17T09:20:28;94021.22;;;8.61;100.00
71057;BME280;58380;48.312;9.246;2024-03-17T09:23:29;94041.50;;;8.78;100.00
71057;BME280;58380;48.312;9.246;2024-03-17T09:26:30;94009.09;;;8.60;100.00
71057;BME280;58380;48.312;9.246;2024-03-17T09:29:30;94035.13;;;8.74;100.00
71057;BME280;58380;48.312;9.246;2024-03-17T09:32:31;94025.25;;;8.52;100.00
71057;BME280;58380;48.312;9.246;2024-03-17T09:35:31;94028.94;;;8.51;100.00
71057;BME280;58380;48.312;9.246;2024-03-17T09:38:33;94041.84;;;8.53;100.00
71057;BME280;58380;48.312;9.246;2024-03-17T09:41:34;94026.59;;;8.67;100.00
71057;BME280;58380;48.312;9.246;2024-03-17T09:44:37;94031.75;;;8.61;100.00
71057;BME280;58380;48.312;9.246;2024-03-17T09:47:39;94025.63;;;8.73;100.00
71057;BME280;58380;48.312;9.246;2024-03-17T09:50:41;94005.63;;;8.72;100.00
71057;BME280;58380;48.312;9.246;2024-03-17T09:53:41;94016.00;;;8.95;100.00
71057;BME280;58380;48.312;9.246;2024-03-17T09:56:42;94012.59;;;8.95;100.00
71057;BME280;58380;48.312;9.246;2024-03-17T09:59:42;94022.66;;;9.15;100.00
71057;BME280;58380;48.312;9.246;2024-03-17T10:02:44;94007.56;;;9.27;100.00
71057;BME280;58380;48.312;9.246;2024-03-17T10:05:45;94022.09;;;9.46;100.00
71057;BME280;58380;48.312;9.246;2024-03-17T10:08:50;94028.31;;;9.74;100.00
71057;BME280;58380;48.312;9.246;2024-03-17T10:11:55;94030.44;;;9.77;96.32
71057;BME280;58380;48.312;9.246;2024-03-17T10:14:59;94019.97;;;9.82;95.70
71057;BME280;58380;48.312;9.246;2024-03-17T10:18:00;94020.44;;;9.96;95.45
71057;BME280;58380;48.312;9.246;2024-03-17T10:21:01;94014.41;;;10.01;94.88
71057;BME280;58380;48.312;9.246;2024-03-17T10:24:12;94019.41;;;10.19;93.78
71057;BME280;58380;48.312;9.246;2024-03-17T10:27:25;94013.69;;;10.27;96.70
71057;BME280;58380;48.312;9.246;2024-03-17T10:30:26;93975.72;;;10.06;93.99
71057;BME280;58380;48.312;9.246;2024-03-17T10:33:29;94005.31;;;10.30;96.42
71057;BME280;58380;48.312;9.246;2024-03-17T10:36:29;94021.13;;;10.52;94.65
71057;BME280;58380;48.312;9.246;2024-03-17T10:39:30;94026.66;;;10.51;90.15
71057;BME280;58380;48.312;9.246;2024-03-17T10:42:30;93995.13;;;10.39;94.62
71057;BME280;58380;48.312;9.246;2024-03-17T10:45:36;94022.19;;;10.51;91.37
71057;BME280;58380;48.312;9.246;2024-03-17T10:48:39;94008.94;;;10.46;90.52
71057;BME280;58380;48.312;9.246;2024-03-17T10:51:43;94001.31;;;10.50;95.35
71057;BME280;58380;48.312;9.246;2024-03-17T10:54:50;94019.66;;;10.62;90.17
71057;BME280;58380;48.312;9.246;2024-03-17T10:57:55;93983.06;;;10.26;89.16
71057;BME280;58380;48.312;9.246;2024-03-17T11:00:59;93988.50;;;10.36;91.44
71057;BME280;58380;48.312;9.246;2024-03-17T11:04:03;94008.47;;;10.54;95.95
71057;BME280;58380;48.312;9.246;2024-03-17T11:07:04;94017.75;;;10.57;89.81
71057;BME280;58380;48.312;9.246;2024-03-17T11:10:09;94010.13;;;10.61;92.69
71057;BME280;58380;48.312;9.246;2024-03-17T11:13:25;93979.41;;;10.49;89.20
71057;BME280;58380;48.312;9.246;2024-03-17T11:16:27;93999.13;;;10.69;90.59
71057;BME280;58380;48.312;9.246;2024-03-17T11:19:28;93998.97;;;10.53;88.50
71057;BME280;58380;48.312;9.246;2024-03-17T11:22:44;94000.06;;;10.85;91.88
71057;BME280;58380;48.312;9.246;2024-03-17T11:25:51;94009.28;;;11.09;89.05
71057;BME280;58380;48.312;9.246;2024-03-17T11:28:52;93979.34;;;10.98;86.30
71057;BME280;58380;48.312;9.246;2024-03-17T11:31:53;94001.16;;;11.16;85.95
71057;BME280;58380;48.312;9.246;2024-03-17T11:35:12;93999.69;;;11.35;92.01
71057;BME280;58380;48.312;9.246;2024-03-17T11:38:51;93997.97;;;11.51;92.41
71057;BME280;58380;48.312;9.246;2024-03-17T11:41:55;93989.31;;;11.61;85.82
71057;BME280;58380;48.312;9.246;2024-03-17T11:44:57;93997.44;;;11.86;87.58
71057;BME280;58380;48.312;9.246;2024-03-17T11:48:06;93968.22;;;11.71;80.68
71057;BME280;58380;48.312;9.246;2024-03-17T11:51:15;93990.28;;;11.87;83.67
71057;BME280;58380;48.312;9.246;2024-03-17T11:54:18;93987.34;;;11.83;80.10
71057;BME280;58380;48.312;9.246;2024-03-17T11:57:20;93987.22;;;11.68;78.30
71057;BME280;58380;48.312;9.246;2024-03-17T12:00:24;93984.53;;;11.58;77.43
71057;BME280;58380;48.312;9.246;2024-03-17T12:03:26;93966.84;;;11.58;85.78
71057;BME280;58380;48.312;9.246;2024-03-17T12:06:26;93962.19;;;11.76;80.64
71057;BME280;58380;48.312;9.246;2024-03-17T12:09:30;93971.28;;;11.95;80.46
71057;BME280;58380;48.312;9.246;2024-03-17T12:12:32;93950.03;;;11.85;67.10
71057;BME280;58380;48.312;9.246;2024-03-17T12:15:35;93968.59;;;11.90;64.92
71057;BME280;58380;48.312;9.246;2024-03-17T12:18:35;93980.56;;;11.60;62.33
71057;BME280;58380;48.312;9.246;2024-03-17T12:21:41;93956.22;;;11.53;65.71
71057;BME280;58380;48.312;9.246;2024-03-17T12:24:46;93953.22;;;11.39;65.37
71057;BME280;58380;48.312;9.246;2024-03-17T12:27:47;93949.00;;;11.38;66.70
71057;BME280;58380;48.312;9.246;2024-03-17T12:30:48;93950.31;;;11.36;63.67
71057;BME280;58380;48.312;9.246;2024-03-17T12:33:49;93958.78;;;11.43;63.38
71057;BME280;58380;48.312;9.246;2024-03-17T12:36:49;93957.63;;;11.66;63.55
71057;BME280;58380;48.312;9.246;2024-03-17T12:39:51;93954.13;;;11.60;60.26
71057;BME280;58380;48.312;9.246;2024-03-17T12:42:51;93946.75;;;11.62;61.93
71057;BME280;58380;48.312;9.246;2024-03-17T12:45:55;93945.25;;;11.82;61.19
71057;BME280;58380;48.312;9.246;2024-03-17T12:48:59;93932.63;;;11.89;60.77
71057;BME280;58380;48.312;9.246;2024-03-17T12:52:00;93908.03;;;11.89;61.88
71057;BME280;58380;48.312;9.246;2024-03-17T12:55:08;93924.53;;;12.11;56.73
71057;BME280;58380;48.312;9.246;2024-03-17T12:58:28;93928.53;;;12.19;58.65
71057;BME280;58380;48.312;9.246;2024-03-17T13:01:47;93928.31;;;12.36;57.78
71057;BME280;58380;48.312;9.246;2024-03-17T13:04:47;93931.75;;;12.41;59.01
71057;BME280;58380;48.312;9.246;2024-03-17T13:07:50;93934.69;;;12.60;58.76
71057;BME280;58380;48.312;9.246;2024-03-17T13:10:51;93931.75;;;12.41;57.80
71057;BME280;58380;48.312;9.246;2024-03-17T13:13:52;93886.84;;;11.83;59.38
71057;BME280;58380;48.312;9.246;2024-03-17T13:16:53;93903.31;;;12.01;61.87
71057;BME280;58380;48.312;9.246;2024-03-17T13:19:53;93933.59;;;12.36;60.97
71057;BME280;58380;48.312;9.246;2024-03-17T13:22:54;93911.31;;;12.16;61.34
71057;BME280;58380;48.312;9.246;2024-03-17T13:25:54;93915.84;;;12.31;60.43
71057;BME280;58380;48.312;9.246;2024-03-17T13:28:54;93931.19;;;12.24;55.12
71057;BME280;58380;48.312;9.246;2024-03-17T13:31:55;93915.00;;;12.15;58.45
71057;BME280;58380;48.312;9.246;2024-03-17T13:34:55;93909.19;;;12.13;57.66
71057;BME280;58380;48.312;9.246;2024-03-17T13:37:57;93909.66;;;12.05;56.92
71057;BME280;58380;48.312;9.246;2024-03-17T13:41:02;93903.59;;;12.04;56.56
71057;BME280;58380;48.312;9.246;2024-03-17T13:44:05;93904.03;;;11.86;58.77
71057;BME280;58380;48.312;9.246;2024-03-17T13:47:05;93874.88;;;11.71;58.84
71057;BME280;58380;48.312;9.246;2024-03-17T13:50:06;93901.06;;;11.77;58.72
71057;BME280;58380;48.312;9.246;2024-03-17T13:53:11;93888.34;;;11.69;59.92
71057;BME280;58380;48.312;9.246;2024-03-17T13:56:11;93880.44;;;11.74;60.06
71057;BME280;58380;48.312;9.246;2024-03-17T13:59:13;93889.81;;;11.97;60.19
71057;BME280;58380;48.312;9.246;2024-03-17T14:02:16;93891.88;;;11.90;57.92
71057;BME280;58380;48.312;9.246;2024-03-17T14:05:18;93891.63;;;11.86;58.85
71057;BME280;58380;48.312;9.246;2024-03-17T14:08:23;93888.25;;;12.01;59.82
71057;BME280;58380;48.312;9.246;2024-03-17T14:11:23;93889.56;;;12.04;57.86
71057;BME280;58380;48.312;9.246;2024-03-17T14:14:23;93880.41;;;11.69;58.45
71057;BME280;58380;48.312;9.246;2024-03-17T14:17:24;93884.91;;;11.63;60.20
71057;BME280;58380;48.312;9.246;2024-03-17T14:20:24;93871.41;;;11.70;60.03
71057;BME280;58380;48.312;9.246;2024-03-17T14:23:25;93862.72;;;11.80;59.12
71057;BME280;58380;48.312;9.246;2024-03-17T14:26:25;93827.22;;;11.60;59.84
71057;BME280;58380;48.312;9.246;2024-03-17T14:29:26;93877.59;;;11.86;59.91
71057;BME280;58380;48.312;9.246;2024-03-17T14:32:26;93866.16;;;11.80;63.32
71057;BME280;58380;48.312;9.246;2024-03-17T14:35:28;93832.63;;;11.86;64.04
71057;BME280;58380;48.312;9.246;2024-03-17T14:38:28;93868.97;;;12.11;65.27
71057;BME280;58380;48.312;9.246;2024-03-17T14:41:29;93847.78;;;12.06;65.19
71057;BME280;58380;48.312;9.246;2024-03-17T14:44:30;93852.78;;;12.02;64.57
71057;BME280;58380;48.312;9.246;2024-03-17T14:47:31;93863.06;;;11.89;68.45
71057;BME280;58380;48.312;9.246;2024-03-17T14:50:31;93860.38;;;11.83;65.77
71057;BME280;58380;48.312;9.246;2024-03-17T14:53:31;93848.69;;;11.69;66.28
71057;BME280;58380;48.312;9.246;2024-03-17T14:56:32;93868.00;;;11.75;66.28
71057;BME280;58380;48.312;9.246;2024-03-17T14:59:33;93869.00;;;11.58;66.40
71057;BME280;58380;48.312;9.246;2024-03-17T15:02:34;93853.53;;;11.30;66.62
71057;BME280;58380;48.312;9.246;2024-03-17T15:05:34;93846.56;;;11.13;68.17
71057;BME280;58380;48.312;9.246;2024-03-17T15:08:34;93868.81;;;11.22;67.86
71057;BME280;58380;48.312;9.246;2024-03-17T15:11:35;93848.88;;;11.05;67.43
71057;BME280;58380;48.312;9.246;2024-03-17T15:14:35;93860.75;;;11.02;67.06
71057;BME280;58380;48.312;9.246;2024-03-17T15:17:37;93853.31;;;10.94;67.79
71057;BME280;58380;48.312;9.246;2024-03-17T15:20:38;93861.47;;;10.92;67.74
71057;BME280;58380;48.312;9.246;2024-03-17T15:23:38;93863.81;;;10.84;69.84
71057;BME280;58380;48.312;9.246;2024-03-17T15:26:40;93822.38;;;10.52;68.78
71057;BME280;58380;48.312;9.246;2024-03-17T15:29:40;93865.03;;;10.71;69.23
71057;BME280;58380;48.312;9.246;2024-03-17T15:32:45;93856.34;;;10.75;70.10
71057;BME280;58380;48.312;9.246;2024-03-17T15:35:46;93852.34;;;10.73;69.60
71057;BME280;58380;48.312;9.246;2024-03-17T15:38:47;93846.00;;;10.69;70.41
71057;BME280;58380;48.312;9.246;2024-03-17T15:41:47;93849.72;;;10.73;70.99
71057;BME280;58380;48.312;9.246;2024-03-17T15:44:48;93839.66;;;10.70;71.66
71057;BME280;58380;48.312;9.246;2024-03-17T15:47:49;93850.56;;;10.78;70.66
71057;BME280;58380;48.312;9.246;2024-03-17T15:50:57;93858.25;;;10.85;71.43
71057;BME280;58380;48.312;9.246;2024-03-17T15:53:58;93859.59;;;10.88;74.32
71057;BME280;58380;48.312;9.246;2024-03-17T15:56:58;93846.69;;;10.91;70.99
71057;BME280;58380;48.312;9.246;2024-03-17T15:59:59;93852.25;;;10.95;70.86
71057;BME280;58380;48.312;9.246;2024-03-17T16:02:59;93848.56;;;10.96;70.85
71057;BME280;58380;48.312;9.246;2024-03-17T16:06:10;93850.19;;;11.02;71.69
71057;BME280;58380;48.312;9.246;2024-03-17T16:09:13;93835.06;;;10.92;70.81
71057;BME280;58380;48.312;9.246;2024-03-17T16:12:14;93854.34;;;10.93;70.56
71057;BME280;58380;48.312;9.246;2024-03-17T16:15:16;93845.06;;;10.85;71.81
71057;BME280;58380;48.312;9.246;2024-03-17T16:18:17;93840.25;;;10.77;78.60
71057;BME280;58380;48.312;9.246;2024-03-17T16:21:21;93844.47;;;10.78;83.71
71057;BME280;58380;48.312;9.246;2024-03-17T16:24:22;93833.25;;;10.61;90.67
71057;BME280;58380;48.312;9.246;2024-03-17T16:27:23;93849.09;;;10.61;93.69
71057;BME280;58380;48.312;9.246;2024-03-17T16:30:23;93841.28;;;10.39;96.97
71057;BME280;58380;48.312;9.246;2024-03-17T16:33:24;93828.44;;;10.25;98.66
71057;BME280;58380;48.312;9.246;2024-03-17T16:36:26;93842.59;;;10.14;100.00
71057;BME280;58380;48.312;9.246;2024-03-17T16:39:27;93838.56;;;10.06;100.00
71057;BME280;58380;48.312;9.246;2024-03-17T16:42:30;93834.00;;;9.97;100.00
71057;BME280;58380;48.312;9.246;2024-03-17T16:45:31;93845.56;;;9.96;100.00
71057;BME280;58380;48.312;9.246;2024-03-17T16:48:33;93843.25;;;9.99;100.00
71057;BME280;58380;48.312;9.246;2024-03-17T16:51:34;93836.91;;;10.00;100.00
71057;BME280;58380;48.312;9.246;2024-03-17T16:54:35;93840.78;;;9.92;100.00
71057;BME280;58380;48.312;9.246;2024-03-17T16:57:36;93832.22;;;9.80;100.00
71057;BME280;58380;48.312;9.246;2024-03-17T17:00:37;93822.53;;;9.59;100.00
71057;BME280;58380;48.312;9.246;2024-03-17T17:03:37;93828.19;;;9.50;100.00
71057;BME280;58380;48.312;9.246;2024-03-17T17:06:38;93825.50;;;9.45;100.00
71057;BME280;58380;48.312;9.246;2024-03-17T17:09:39;93826.78;;;9.43;100.00
71057;BME280;58380;48.312;9.246;2024-03-17T17:12:39;93835.09;;;9.52;100.00
71057;BME280;58380;48.312;9.246;2024-03-17T17:15:42;93829.31;;;9.55;100.00
71057;BME280;58380;48.312;9.246;2024-03-17T17:19:00;93823.44;;;9.47;100.00
71057;BME280;58380;48.312;9.246;2024-03-17T17:22:07;93833.59;;;9.61;100.00
71057;BME280;58380;48.312;9.246;2024-03-17T17:25:15;93819.56;;;9.55;100.00
71057;BME280;58380;48.312;9.246;2024-03-17T17:28:15;93825.16;;;9.59;100.00
71057;BME280;58380;48.312;9.246;2024-03-17T17:31:16;93823.00;;;9.56;100.00
71057;BME280;58380;48.312;9.246;2024-03-17T17:34:17;93831.66;;;9.51;100.00
71057;BME280;58380;48.312;9.246;2024-03-17T17:37:17;93832.56;;;9.40;100.00
71057;BME280;58380;48.312;9.246;2024-03-17T17:40:18;93822.13;;;9.28;100.00
71057;BME280;58380;48.312;9.246;2024-03-17T17:43:19;93829.06;;;9.34;100.00
71057;BME280;58380;48.312;9.246;2024-03-17T17:46:23;93832.25;;;9.36;100.00
71057;BME280;58380;48.312;9.246;2024-03-17T17:49:26;93830.75;;;9.23;100.00
71057;BME280;58380;48.312;9.246;2024-03-17T17:52:26;93839.28;;;9.31;100.00
71057;BME280;58380;48.312;9.246;2024-03-17T17:55:28;93819.38;;;9.18;100.00
71057;BME280;58380;48.312;9.246;2024-03-17T17:58:29;93835.72;;;9.20;100.00
71057;BME280;58380;48.312;9.246;2024-03-17T18:01:29;93806.50;;;8.99;100.00
71057;BME280;58380;48.312;9.246;2024-03-17T18:04:29;93839.16;;;9.20;100.00
71057;BME280;58380;48.312;9.246;2024-03-17T18:07:30;93831.97;;;9.16;100.00
71057;BME280;58380;48.312;9.246;2024-03-17T18:10:37;93826.59;;;9.05;100.00
71057;BME280;58380;48.312;9.246;2024-03-17T18:13:37;93822.38;;;9.04;100.00
71057;BME280;58380;48.312;9.246;2024-03-17T18:16:38;93826.50;;;9.00;100.00
71057;BME280;58380;48.312;9.246;2024-03-17T18:19:38;93825.50;;;9.01;100.00
71057;BME280;58380;48.312;9.246;2024-03-17T18:22:39;93816.78;;;9.01;100.00
71057;BME280;58380;48.312;9.246;2024-03-17T18:25:39;93782.41;;;8.69;100.00
71057;BME280;58380;48.312;9.246;2024-03-17T18:28:43;93811.06;;;8.87;100.00
71057;BME280;58380;48.312;9.246;2024-03-17T18:31:46;93835.63;;;8.93;100.00
71057;BME280;58380;48.312;9.246;2024-03-17T18:34:47;93832.69;;;8.89;100.00
71057;BME280;58380;48.312;9.246;2024-03-17T18:37:47;93804.47;;;8.68;100.00
71057;BME280;58380;48.312;9.246;2024-03-17T18:41:01;93819.69;;;8.82;100.00
71057;BME280;58380;48.312;9.246;2024-03-17T18:44:04;93809.50;;;8.69;100.00
71057;BME280;58380;48.312;9.246;2024-03-17T18:47:04;93804.41;;;8.62;100.00
71057;BME280;58380;48.312;9.246;2024-03-17T18:50:05;93823.38;;;8.64;100.00
71057;BME280;58380;48.312;9.246;2024-03-17T18:53:07;93843.16;;;8.67;100.00
71057;BME280;58380;48.312;9.246;2024-03-17T18:56:08;93803.53;;;8.40;100.00
71057;BME280;58380;48.312;9.246;2024-03-17T18:59:09;93810.56;;;8.51;100.00
71057;BME280;58380;48.312;9.246;2024-03-17T19:02:09;93830.94;;;8.61;100.00
71057;BME280;58380;48.312;9.246;2024-03-17T19:05:12;93822.66;;;8.52;100.00
71057;BME280;58380;48.312;9.246;2024-03-17T19:08:12;93822.81;;;8.46;100.00
71057;BME280;58380;48.312;9.246;2024-03-17T19:11:13;93824.19;;;8.48;100.00
71057;BME280;58380;48.312;9.246;2024-03-17T19:14:14;93829.13;;;8.45;100.00
71057;BME280;58380;48.312;9.246;2024-03-17T19:17:15;93826.72;;;8.43;100.00
71057;BME280;58380;48.312;9.246;2024-03-17T19:20:15;93839.97;;;8.48;100.00
71057;BME280;58380;48.312;9.246;2024-03-17T19:23:16;93832.31;;;8.47;100.00
71057;BME280;58380;48.312;9.246;2024-03-17T19:26:16;93827.00;;;8.41;100.00
71057;BME280;58380;48.312;9.246;2024-03-17T19:29:21;93824.25;;;8.36;100.00
71057;BME280;58380;48.312;9.246;2024-03-17T19:32:22;93808.63;;;8.30;100.00
71057;BME280;58380;48.312;9.246;2024-03-17T19:35:22;93820.97;;;8.29;100.00
71057;BME280;58380;48.312;9.246;2024-03-17T19:38:23;93808.84;;;8.11;100.00
71057;BME280;58380;48.312;9.246;2024-03-17T19:41:24;93824.63;;;8.11;100.00
71057;BME280;58380;48.312;9.246;2024-03-17T19:44:25;93793.00;;;7.77;100.00
71057;BME280;58380;48.312;9.246;2024-03-17T19:47:26;93808.38;;;7.86;100.00
71057;BME280;58380;48.312;9.246;2024-03-17T19:50:30;93815.25;;;7.87;100.00
71057;BME280;58380;48.312;9.246;2024-03-17T19:53:30;93823.94;;;7.87;100.00
71057;BME280;58380;48.312;9.246;2024-03-17T19:56:31;93827.84;;;7.85;100.00
71057;BME280;58380;48.312;9.246;2024-03-17T19:59:32;93819.84;;;7.80;100.00
71057;BME280;58380;48.312;9.246;2024-03-17T20:02:32;93805.41;;;7.65;100.00
71057;BME280;58380;48.312;9.246;2024-03-17T20:05:33;93818.22;;;7.62;100.00
71057;BME280;58380;48.312;9.246;2024-03-17T20:08:34;93813.75;;;7.62;100.00
71057;BME280;58380;48.312;9.246;2024-03-17T20:11:35;93813.41;;;7.59;100.00
71057;BME280;58380;48.312;9.246;2024-03-17T20:14:36;93804.22;;;7.44;100.00
71057;BME280;58380;48.312;9.246;2024-03-17T20:17:38;93795.22;;;7.40;100.00
71057;BME280;58380;48.312;9.246;2024-03-17T20:20:38;93823.97;;;7.47;100.00
71057;BME280;58380;48.312;9.246;2024-03-17T20:23:39;93797.28;;;7.38;100.00
71057;BME280;58380;48.312;9.246;2024-03-17T20:26:39;93809.28;;;7.34;100.00
71057;BME280;58380;48.312;9.246;2024-03-17T20:29:40;93803.38;;;7.27;100.00
71057;BME280;58380;48.312;9.246;2024-03-17T20:32:41;93813.72;;;7.33;100.00
71057;BME280;58380;48.312;9.246;2024-03-17T20:35:41;93786.94;;;7.20;100.00
71057;BME280;58380;48.312;9.246;2024-03-17T20:38:42;93810.78;;;7.30;100.00
71057;BME280;58380;48.312;9.246;2024-03-17T20:41:43;93789.19;;;7.28;100.00
71057;BME280;58380;48.312;9.246;2024-03-17T20:44:43;93786.38;;;7.18;100.00
71057;BME280;58380;48.312;9.246;2024-03-17T20:47:43;93790.25;;;7.15;100.00
71057;BME280;58380;48.312;9.246;2024-03-17T20:50:44;93793.47;;;7.17;100.00
71057;BME280;58380;48.312;9.246;2024-03-17T20:53:44;93784.22;;;7.15;100.00
71057;BME280;58380;48.312;9.246;2024-03-17T20:56:45;93791.84;;;7.16;100.00
71057;BME280;58380;48.312;9.246;2024-03-17T20:59:45;93773.28;;;7.06;100.00
71057;BME280;58380;48.312;9.246;2024-03-17T21:02:50;93773.63;;;7.09;100.00
71057;BME280;58380;48.312;9.246;2024-03-17T21:05:52;93785.72;;;7.10;100.00
71057;BME280;58380;48.312;9.246;2024-03-17T21:08:53;93758.56;;;7.05;100.00
71057;BME280;58380;48.312;9.246;2024-03-17T21:11:53;93766.75;;;7.08;100.00
71057;BME280;58380;48.312;9.246;2024-03-17T21:14:56;93765.94;;;7.20;100.00
71057;BME280;58380;48.312;9.246;2024-03-17T21:17:56;93764.00;;;7.15;100.00
71057;BME280;58380;48.312;9.246;2024-03-17T21:21:03;93765.06;;;7.14;100.00
71057;BME280;58380;48.312;9.246;2024-03-17T21:24:04;93762.88;;;7.11;100.00
71057;BME280;58380;48.312;9.246;2024-03-17T21:27:05;93763.44;;;7.13;100.00
71057;BME280;58380;48.312;9.246;2024-03-17T21:30:05;93757.72;;;7.16;100.00
71057;BME280;58380;48.312;9.246;2024-03-17T21:33:06;93752.94;;;7.13;100.00
71057;BME280;58380;48.312;9.246;2024-03-17T21:36:07;93755.25;;;7.09;100.00
71057;BME280;58380;48.312;9.246;2024-03-17T21:39:07;93743.97;;;6.97;100.00
71057;BME280;58380;48.312;9.246;2024-03-17T21:42:08;93750.78;;;7.10;100.00
71057;BME280;58380;48.312;9.246;2024-03-17T21:45:09;93747.13;;;7.11;100.00
71057;BME280;58380;48.312;9.246;2024-03-17T21:48:12;93748.59;;;7.19;100.00
71057;BME280;58380;48.312;9.246;2024-03-17T21:51:12;93731.72;;;7.15;100.00
71057;BME280;58380;48.312;9.246;2024-03-17T21:54:13;93731.34;;;7.23;100.00
71057;BME280;58380;48.312;9.246;2024-03-17T21:57:13;93740.56;;;7.25;100.00
